sensor_id;sensor_type;location;lat;lon;timestamp;temperature;humidity
30648;DHT22;17683;53.360;9.736;2023-06-05T00:02:08;10.60;99.90
30648;DHT22;17683;53.360;9.736;2023-06-05T00:04:34;10.60;99.90
30648;DHT22;17683;53.360;9.736;2023-06-05T00:07:02;10.50;99.90
30648;DHT22;17683;53.360;9.736;2023-06-05T00:09:27;10.50;99.90
30648;DHT22;17683;53.360;9.736;2023-06-05T00:11:53;10.50;99.90
30648;DHT22;17683;53.360;9.736;2023-06-05T00:14:19;10.50;99.90
30648;DHT22;17683;53.360;9.736;2023-06-05T00:16:45;10.50;99.90
30648;DHT22;17683;53.360;9.736;2023-06-05T00:19:11;10.40;99.90
30648;DHT22;17683;53.360;9.736;2023-06-05T00:21:37;10.50;99.90
30648;DHT22;17683;53.360;9.736;2023-06-05T00:24:03;10.40;99.90
30648;DHT22;17683;53.360;9.736;2023-06-05T00:26:29;10.40;99.90
30648;DHT22;17683;53.360;9.736;2023-06-05T00:28:54;10.40;99.90
30648;DHT22;17683;53.360;9.736;2023-06-05T00:31:20;10.30;99.90
30648;DHT22;17683;53.360;9.736;2023-06-05T00:33:48;10.30;99.90
30648;DHT22;17683;53.360;9.736;2023-06-05T00:36:13;10.30;99.90
30648;DHT22;17683;53.360;9.736;2023-06-05T00:38:39;10.30;99.90
30648;DHT22;17683;53.360;9.736;2023-06-05T00:41:05;10.20;99.90
30648;DHT22;17683;53.360;9.736;2023-06-05T00:43:31;10.20;99.90
30648;DHT22;17683;53.360;9.736;2023-06-05T00:46:00;10.20;99.90
30648;DHT22;17683;53.360;9.736;2023-06-05T00:48:29;10.20;99.90
30648;DHT22;17683;53.360;9.736;2023-06-05T00:50:55;10.10;99.90
30648;DHT22;17683;53.360;9.736;2023-06-05T00:53:23;10.00;99.90
30648;DHT22;17683;53.360;9.736;2023-06-05T00:55:50;10.00;99.90
30648;DHT22;17683;53.360;9.736;2023-06-05T00:58:17;10.10;99.90
30648;DHT22;17683;53.360;9.736;2023-06-05T01:00:43;9.90;99.90
30648;DHT22;17683;53.360;9.736;2023-06-05T01:03:10;9.90;99.90
30648;DHT22;17683;53.360;9.736;2023-06-05T01:05:37;9.90;99.90
30648;DHT22;17683;53.360;9.736;2023-06-05T01:08:04;9.90;99.90
30648;DHT22;17683;53.360;9.736;2023-06-05T01:10:31;9.90;99.90
30648;DHT22;17683;53.360;9.736;2023-06-05T01:13:18;9.90;99.90
30648;DHT22;17683;53.360;9.736;2023-06-05T01:15:47;9.90;99.90
30648;DHT22;17683;53.360;9.736;2023-06-05T01:18:13;9.90;99.90
30648;DHT22;17683;53.360;9.736;2023-06-05T01:20:40;9.90;99.90
30648;DHT22;17683;53.360;9.736;2023-06-05T01:23:08;9.90;99.90
30648;DHT22;17683;53.360;9.736;2023-06-05T01:25:35;9.90;99.90
30648;DHT22;17683;53.360;9.736;2023-06-05T01:30:40;9.90;99.90
30648;DHT22;17683;53.360;9.736;2023-06-05T01:33:11;9.80;99.90
30648;DHT22;17683;53.360;9.736;2023-06-05T01:35:39;9.80;99.90
30648;DHT22;17683;53.360;9.736;2023-06-05T01:38:07;9.80;99.90
30648;DHT22;17683;53.360;9.736;2023-06-05T01:40:35;9.80;99.90
30648;DHT22;17683;53.360;9.736;2023-06-05T01:43:03;9.80;99.90
30648;DHT22;17683;53.360;9.736;2023-06-05T01:45:31;9.80;99.90
30648;DHT22;17683;53.360;9.736;2023-06-05T01:47:57;9.70;99.90
30648;DHT22;17683;53.360;9.736;2023-06-05T01:50:24;9.70;99.90
30648;DHT22;17683;53.360;9.736;2023-06-05T01:52:50;9.70;99.90
30648;DHT22;17683;53.360;9.736;2023-06-05T01:55:19;9.60;99.90
30648;DHT22;17683;53.360;9.736;2023-06-05T01:57:49;9.60;99.90
30648;DHT22;17683;53.360;9.736;2023-06-05T02:00:15;9.60;99.90
30648;DHT22;17683;53.360;9.736;2023-06-05T02:02:45;9.60;99.90
30648;DHT22;17683;53.360;9.736;2023-06-05T02:05:12;9.50;99.90
30648;DHT22;17683;53.360;9.736;2023-06-05T02:07:47;9.50;99.90
30648;DHT22;17683;53.360;9.736;2023-06-05T02:10:15;9.50;99.90
30648;DHT22;17683;53.360;9.736;2023-06-05T02:12:44;9.50;99.90
30648;DHT22;17683;53.360;9.736;2023-06-05T02:15:10;9.50;99.90
30648;DHT22;17683;53.360;9.736;2023-06-05T02:17:39;9.40;99.90
30648;DHT22;17683;53.360;9.736;2023-06-05T02:20:13;9.40;99.90
30648;DHT22;17683;53.360;9.736;2023-06-05T02:22:41;9.30;99.90
30648;DHT22;17683;53.360;9.736;2023-06-05T02:25:07;9.30;99.90
30648;DHT22;17683;53.360;9.736;2023-06-05T02:27:33;9.30;99.90
30648;DHT22;17683;53.360;9.736;2023-06-05T02:29:59;9.40;99.90
30648;DHT22;17683;53.360;9.736;2023-06-05T02:32:25;9.30;99.90
30648;DHT22;17683;53.360;9.736;2023-06-05T02:34:52;9.30;99.90
30648;DHT22;17683;53.360;9.736;2023-06-05T02:37:18;9.20;99.90
30648;DHT22;17683;53.360;9.736;2023-06-05T02:39:44;9.20;99.90
30648;DHT22;17683;53.360;9.736;2023-06-05T02:42:10;9.30;99.90
30648;DHT22;17683;53.360;9.736;2023-06-05T02:44:38;9.20;99.90
30648;DHT22;17683;53.360;9.736;2023-06-05T02:47:04;9.20;99.90
30648;DHT22;17683;53.360;9.736;2023-06-05T02:49:30;9.20;99.90
30648;DHT22;17683;53.360;9.736;2023-06-05T02:51:57;9.10;99.90
30648;DHT22;17683;53.360;9.736;2023-06-05T02:54:23;9.10;99.90
30648;DHT22;17683;53.360;9.736;2023-06-05T02:56:48;9.10;99.90
30648;DHT22;17683;53.360;9.736;2023-06-05T02:59:15;9.00;99.90
30648;DHT22;17683;53.360;9.736;2023-06-05T03:01:40;9.00;99.90
30648;DHT22;17683;53.360;9.736;2023-06-05T03:04:12;9.00;99.90
30648;DHT22;17683;53.360;9.736;2023-06-05T03:06:38;9.00;99.90
30648;DHT22;17683;53.360;9.736;2023-06-05T03:09:09;8.90;99.90
30648;DHT22;17683;53.360;9.736;2023-06-05T03:11:34;8.90;99.90
30648;DHT22;17683;53.360;9.736;2023-06-05T03:14:00;8.90;99.90
30648;DHT22;17683;53.360;9.736;2023-06-05T03:16:26;8.90;99.90
30648;DHT22;17683;53.360;9.736;2023-06-05T03:18:58;8.90;99.90
30648;DHT22;17683;53.360;9.736;2023-06-05T03:21:24;9.00;99.90
30648;DHT22;17683;53.360;9.736;2023-06-05T03:23:50;8.90;99.90
30648;DHT22;17683;53.360;9.736;2023-06-05T03:26:15;8.90;99.90
30648;DHT22;17683;53.360;9.736;2023-06-05T03:28:41;9.00;99.90
30648;DHT22;17683;53.360;9.736;2023-06-05T03:31:08;9.00;99.90
30648;DHT22;17683;53.360;9.736;2023-06-05T03:33:35;9.00;99.90
30648;DHT22;17683;53.360;9.736;2023-06-05T03:36:01;9.00;99.90
30648;DHT22;17683;53.360;9.736;2023-06-05T03:38:27;9.00;99.90
30648;DHT22;17683;53.360;9.736;2023-06-05T03:40:53;9.00;99.90
30648;DHT22;17683;53.360;9.736;2023-06-05T03:43:18;9.00;99.90
30648;DHT22;17683;53.360;9.736;2023-06-05T03:45:44;9.00;99.90
30648;DHT22;17683;53.360;9.736;2023-06-05T03:48:10;9.00;99.90
30648;DHT22;17683;53.360;9.736;2023-06-05T03:50:36;9.10;99.90
30648;DHT22;17683;53.360;9.736;2023-06-05T03:53:06;9.10;99.90
30648;DHT22;17683;53.360;9.736;2023-06-05T03:55:34;9.10;99.90
30648;DHT22;17683;53.360;9.736;2023-06-05T03:58:12;9.10;99.90
30648;DHT22;17683;53.360;9.736;2023-06-05T04:00:48;9.10;99.90
30648;DHT22;17683;53.360;9.736;2023-06-05T04:03:14;9.20;99.90
30648;DHT22;17683;53.360;9.736;2023-06-05T04:05:41;9.20;99.90
30648;DHT22;17683;53.360;9.736;2023-06-05T04:08:08;9.20;99.90
30648;DHT22;17683;53.360;9.736;2023-06-05T04:10:38;9.30;99.90
30648;DHT22;17683;53.360;9.736;2023-06-05T04:13:04;9.30;99.90
30648;DHT22;17683;53.360;9.736;2023-06-05T04:15:29;9.30;99.90
30648;DHT22;17683;53.360;9.736;2023-06-05T04:17:56;9.30;99.90
30648;DHT22;17683;53.360;9.736;2023-06-05T04:20:22;9.30;99.90
30648;DHT22;17683;53.360;9.736;2023-06-05T04:22:48;9.40;99.90
30648;DHT22;17683;53.360;9.736;2023-06-05T04:25:14;9.40;99.90
30648;DHT22;17683;53.360;9.736;2023-06-05T04:27:41;9.40;99.90
30648;DHT22;17683;53.360;9.736;2023-06-05T04:30:08;9.50;99.90
30648;DHT22;17683;53.360;9.736;2023-06-05T04:32:35;9.50;99.90
30648;DHT22;17683;53.360;9.736;2023-06-05T04:35:07;9.50;99.90
30648;DHT22;17683;53.360;9.736;2023-06-05T04:37:34;9.50;99.90
30648;DHT22;17683;53.360;9.736;2023-06-05T04:40:01;9.60;99.90
30648;DHT22;17683;53.360;9.736;2023-06-05T04:42:36;9.70;99.90
30648;DHT22;17683;53.360;9.736;2023-06-05T04:45:04;9.70;99.90
30648;DHT22;17683;53.360;9.736;2023-06-05T04:47:31;9.80;99.90
30648;DHT22;17683;53.360;9.736;2023-06-05T04:50:02;9.90;99.90
30648;DHT22;17683;53.360;9.736;2023-06-05T04:52:31;10.00;99.90
30648;DHT22;17683;53.360;9.736;2023-06-05T04:54:58;10.00;99.90
30648;DHT22;17683;53.360;9.736;2023-06-05T04:57:27;10.10;99.90
30648;DHT22;17683;53.360;9.736;2023-06-05T04:59:53;10.20;99.90
30648;DHT22;17683;53.360;9.736;2023-06-05T05:02:20;10.20;99.90
30648;DHT22;17683;53.360;9.736;2023-06-05T05:04:47;10.30;99.90
30648;DHT22;17683;53.360;9.736;2023-06-05T05:07:12;10.40;99.90
30648;DHT22;17683;53.360;9.736;2023-06-05T05:09:45;10.70;99.90
30648;DHT22;17683;53.360;9.736;2023-06-05T05:12:11;10.90;99.90
30648;DHT22;17683;53.360;9.736;2023-06-05T05:14:38;11.10;99.90
30648;DHT22;17683;53.360;9.736;2023-06-05T05:17:05;11.30;99.90
30648;DHT22;17683;53.360;9.736;2023-06-05T05:19:31;11.50;99.90
30648;DHT22;17683;53.360;9.736;2023-06-05T05:21:57;11.70;99.90
30648;DHT22;17683;53.360;9.736;2023-06-05T05:24:23;11.80;99.90
30648;DHT22;17683;53.360;9.736;2023-06-05T05:26:51;12.00;99.90
30648;DHT22;17683;53.360;9.736;2023-06-05T05:29:17;12.20;99.90
30648;DHT22;17683;53.360;9.736;2023-06-05T05:31:44;12.50;99.90
30648;DHT22;17683;53.360;9.736;2023-06-05T05:34:09;12.70;99.90
30648;DHT22;17683;53.360;9.736;2023-06-05T05:36:35;12.80;99.90
30648;DHT22;17683;53.360;9.736;2023-06-05T05:39:03;13.00;99.90
30648;DHT22;17683;53.360;9.736;2023-06-05T05:41:28;12.90;99.90
30648;DHT22;17683;53.360;9.736;2023-06-05T05:43:54;13.20;99.90
30648;DHT22;17683;53.360;9.736;2023-06-05T05:46:20;13.40;99.90
30648;DHT22;17683;53.360;9.736;2023-06-05T05:48:46;13.50;99.90
30648;DHT22;17683;53.360;9.736;2023-06-05T05:51:11;13.60;99.90
30648;DHT22;17683;53.360;9.736;2023-06-05T05:53:37;13.70;99.90
30648;DHT22;17683;53.360;9.736;2023-06-05T05:56:03;13.90;99.90
30648;DHT22;17683;53.360;9.736;2023-06-05T05:58:29;14.00;99.90
30648;DHT22;17683;53.360;9.736;2023-06-05T06:00:55;14.10;99.90
30648;DHT22;17683;53.360;9.736;2023-06-05T06:03:21;14.30;99.90
30648;DHT22;17683;53.360;9.736;2023-06-05T06:05:47;14.50;99.90
30648;DHT22;17683;53.360;9.736;2023-06-05T06:08:13;14.60;99.90
30648;DHT22;17683;53.360;9.736;2023-06-05T06:10:40;14.60;99.90
30648;DHT22;17683;53.360;9.736;2023-06-05T06:13:06;14.80;99.90
30648;DHT22;17683;53.360;9.736;2023-06-05T06:15:32;14.90;99.90
30648;DHT22;17683;53.360;9.736;2023-06-05T06:17:58;15.10;99.90
30648;DHT22;17683;53.360;9.736;2023-06-05T06:20:28;15.30;99.90
30648;DHT22;17683;53.360;9.736;2023-06-05T06:22:54;15.40;99.90
30648;DHT22;17683;53.360;9.736;2023-06-05T06:25:20;15.50;99.90
30648;DHT22;17683;53.360;9.736;2023-06-05T06:27:47;15.50;99.90
30648;DHT22;17683;53.360;9.736;2023-06-05T06:30:14;15.70;99.90
30648;DHT22;17683;53.360;9.736;2023-06-05T06:32:40;15.80;99.90
30648;DHT22;17683;53.360;9.736;2023-06-05T06:35:07;15.90;99.90
30648;DHT22;17683;53.360;9.736;2023-06-05T06:37:33;16.10;99.90
30648;DHT22;17683;53.360;9.736;2023-06-05T06:39:59;16.20;99.90
30648;DHT22;17683;53.360;9.736;2023-06-05T06:42:25;16.30;99.90
30648;DHT22;17683;53.360;9.736;2023-06-05T06:44:54;16.50;99.90
30648;DHT22;17683;53.360;9.736;2023-06-05T06:47:24;16.50;99.90
30648;DHT22;17683;53.360;9.736;2023-06-05T06:49:51;16.60;99.90
30648;DHT22;17683;53.360;9.736;2023-06-05T06:52:17;16.70;99.90
30648;DHT22;17683;53.360;9.736;2023-06-05T06:54:44;16.90;99.90
30648;DHT22;17683;53.360;9.736;2023-06-05T06:57:09;17.00;99.90
30648;DHT22;17683;53.360;9.736;2023-06-05T06:59:35;17.10;99.90
30648;DHT22;17683;53.360;9.736;2023-06-05T07:02:27;17.20;99.90
30648;DHT22;17683;53.360;9.736;2023-06-05T07:04:53;17.20;99.90
30648;DHT22;17683;53.360;9.736;2023-06-05T07:07:20;17.30;99.90
30648;DHT22;17683;53.360;9.736;2023-06-05T07:09:49;17.50;99.90
30648;DHT22;17683;53.360;9.736;2023-06-05T07:12:18;17.70;99.90
30648;DHT22;17683;53.360;9.736;2023-06-05T07:14:45;17.80;99.90
30648;DHT22;17683;53.360;9.736;2023-06-05T07:17:11;17.90;99.90
30648;DHT22;17683;53.360;9.736;2023-06-05T07:19:37;17.90;99.90
30648;DHT22;17683;53.360;9.736;2023-06-05T07:22:04;17.90;99.90
30648;DHT22;17683;53.360;9.736;2023-06-05T07:24:30;17.90;99.90
30648;DHT22;17683;53.360;9.736;2023-06-05T07:26:59;18.00;99.90
30648;DHT22;17683;53.360;9.736;2023-06-05T07:29:25;18.10;99.90
30648;DHT22;17683;53.360;9.736;2023-06-05T07:31:53;18.20;99.90
30648;DHT22;17683;53.360;9.736;2023-06-05T07:34:19;18.30;99.90
30648;DHT22;17683;53.360;9.736;2023-06-05T07:36:46;18.40;99.90
30648;DHT22;17683;53.360;9.736;2023-06-05T07:39:15;18.60;99.90
30648;DHT22;17683;53.360;9.736;2023-06-05T07:41:42;18.70;99.90
30648;DHT22;17683;53.360;9.736;2023-06-05T07:44:15;18.80;99.90
30648;DHT22;17683;53.360;9.736;2023-06-05T07:46:45;18.90;99.90
30648;DHT22;17683;53.360;9.736;2023-06-05T07:49:11;19.10;99.90
30648;DHT22;17683;53.360;9.736;2023-06-05T07:51:37;19.40;99.90
30648;DHT22;17683;53.360;9.736;2023-06-05T07:54:06;19.40;99.90
30648;DHT22;17683;53.360;9.736;2023-06-05T07:56:32;19.70;99.90
30648;DHT22;17683;53.360;9.736;2023-06-05T07:58:59;19.80;99.90
30648;DHT22;17683;53.360;9.736;2023-06-05T08:01:26;19.90;99.90
30648;DHT22;17683;53.360;9.736;2023-06-05T08:03:53;20.10;99.90
30648;DHT22;17683;53.360;9.736;2023-06-05T08:06:19;20.20;99.90
30648;DHT22;17683;53.360;9.736;2023-06-05T08:08:45;20.30;99.90
30648;DHT22;17683;53.360;9.736;2023-06-05T08:11:11;20.20;99.90
30648;DHT22;17683;53.360;9.736;2023-06-05T08:13:37;20.30;99.90
30648;DHT22;17683;53.360;9.736;2023-06-05T08:16:04;20.50;99.90
30648;DHT22;17683;53.360;9.736;2023-06-05T08:18:31;20.70;99.90
30648;DHT22;17683;53.360;9.736;2023-06-05T08:20:56;20.80;99.90
30648;DHT22;17683;53.360;9.736;2023-06-05T08:23:22;21.00;99.90
30648;DHT22;17683;53.360;9.736;2023-06-05T08:25:48;20.90;99.00
30648;DHT22;17683;53.360;9.736;2023-06-05T08:28:15;21.10;99.90
30648;DHT22;17683;53.360;9.736;2023-06-05T08:30:42;21.00;99.60
30648;DHT22;17683;53.360;9.736;2023-06-05T08:33:08;21.10;99.90
30648;DHT22;17683;53.360;9.736;2023-06-05T08:35:33;21.30;99.00
30648;DHT22;17683;53.360;9.736;2023-06-05T08:37:59;21.50;99.30
30648;DHT22;17683;53.360;9.736;2023-06-05T08:40:28;21.70;98.80
30648;DHT22;17683;53.360;9.736;2023-06-05T08:42:54;21.90;97.90
30648;DHT22;17683;53.360;9.736;2023-06-05T08:45:20;22.10;98.70
30648;DHT22;17683;53.360;9.736;2023-06-05T08:47:50;22.20;98.60
30648;DHT22;17683;53.360;9.736;2023-06-05T08:50:17;22.30;97.40
30648;DHT22;17683;53.360;9.736;2023-06-05T08:52:43;22.20;97.00
30648;DHT22;17683;53.360;9.736;2023-06-05T08:55:11;22.20;95.90
30648;DHT22;17683;53.360;9.736;2023-06-05T08:57:41;22.20;96.90
30648;DHT22;17683;53.360;9.736;2023-06-05T09:00:08;22.30;96.30
30648;DHT22;17683;53.360;9.736;2023-06-05T09:02:37;22.40;95.90
30648;DHT22;17683;53.360;9.736;2023-06-05T09:05:04;22.50;96.20
30648;DHT22;17683;53.360;9.736;2023-06-05T09:07:30;22.50;96.70
30648;DHT22;17683;53.360;9.736;2023-06-05T09:09:59;22.00;94.90
30648;DHT22;17683;53.360;9.736;2023-06-05T09:12:24;22.00;96.10
30648;DHT22;17683;53.360;9.736;2023-06-05T09:14:51;22.30;96.80
30648;DHT22;17683;53.360;9.736;2023-06-05T09:17:17;22.40;96.40
30648;DHT22;17683;53.360;9.736;2023-06-05T09:19:44;22.60;96.90
30648;DHT22;17683;53.360;9.736;2023-06-05T09:22:12;22.80;95.60
30648;DHT22;17683;53.360;9.736;2023-06-05T09:24:40;22.90;95.30
30648;DHT22;17683;53.360;9.736;2023-06-05T09:27:10;22.90;95.10
30648;DHT22;17683;53.360;9.736;2023-06-05T09:29:40;23.00;95.80
30648;DHT22;17683;53.360;9.736;2023-06-05T09:32:17;23.20;94.80
30648;DHT22;17683;53.360;9.736;2023-06-05T09:34:43;23.30;95.00
30648;DHT22;17683;53.360;9.736;2023-06-05T09:37:12;23.20;94.10
30648;DHT22;17683;53.360;9.736;2023-06-05T09:39:40;23.50;95.20
30648;DHT22;17683;53.360;9.736;2023-06-05T09:42:08;23.50;94.50
30648;DHT22;17683;53.360;9.736;2023-06-05T09:44:35;23.40;94.60
30648;DHT22;17683;53.360;9.736;2023-06-05T09:47:06;23.60;95.00
30648;DHT22;17683;53.360;9.736;2023-06-05T09:52:09;23.30;94.80
30648;DHT22;17683;53.360;9.736;2023-06-05T09:54:37;23.30;93.80
30648;DHT22;17683;53.360;9.736;2023-06-05T09:57:05;23.50;94.50
30648;DHT22;17683;53.360;9.736;2023-06-05T09:59:34;23.00;93.30
30648;DHT22;17683;53.360;9.736;2023-06-05T10:02:04;23.20;94.50
30648;DHT22;17683;53.360;9.736;2023-06-05T10:04:36;23.30;93.80
30648;DHT22;17683;53.360;9.736;2023-06-05T10:07:04;23.40;93.30
30648;DHT22;17683;53.360;9.736;2023-06-05T10:09:30;23.50;92.80
30648;DHT22;17683;53.360;9.736;2023-06-05T10:11:57;23.80;93.50
30648;DHT22;17683;53.360;9.736;2023-06-05T10:14:24;23.80;92.90
30648;DHT22;17683;53.360;9.736;2023-06-05T10:16:51;24.00;92.80
30648;DHT22;17683;53.360;9.736;2023-06-05T10:19:20;24.10;93.20
30648;DHT22;17683;53.360;9.736;2023-06-05T10:21:47;24.20;92.60
30648;DHT22;17683;53.360;9.736;2023-06-05T10:24:34;24.00;92.60
30648;DHT22;17683;53.360;9.736;2023-06-05T10:27:23;24.10;92.40
30648;DHT22;17683;53.360;9.736;2023-06-05T10:35:53;24.40;91.90
30648;DHT22;17683;53.360;9.736;2023-06-05T10:38:27;24.50;91.90
30648;DHT22;17683;53.360;9.736;2023-06-05T10:46:00;25.00;92.00
30648;DHT22;17683;53.360;9.736;2023-06-05T10:54:04;24.80;91.10
30648;DHT22;17683;53.360;9.736;2023-06-05T10:59:26;24.80;90.70
30648;DHT22;17683;53.360;9.736;2023-06-05T11:13:12;25.10;90.30
30648;DHT22;17683;53.360;9.736;2023-06-05T11:15:14;24.90;90.90
30648;DHT22;17683;53.360;9.736;2023-06-05T11:17:42;24.90;88.50
30648;DHT22;17683;53.360;9.736;2023-06-05T11:28:03;25.00;88.50
30648;DHT22;17683;53.360;9.736;2023-06-05T11:30:32;25.10;88.50
30648;DHT22;17683;53.360;9.736;2023-06-05T11:33:12;24.90;87.90
30648;DHT22;17683;53.360;9.736;2023-06-05T11:35:39;24.90;87.50
30648;DHT22;17683;53.360;9.736;2023-06-05T11:38:13;25.20;90.00
30648;DHT22;17683;53.360;9.736;2023-06-05T11:40:39;25.40;88.30
30648;DHT22;17683;53.360;9.736;2023-06-05T11:43:07;25.40;86.60
30648;DHT22;17683;53.360;9.736;2023-06-05T11:45:34;25.60;87.20
30648;DHT22;17683;53.360;9.736;2023-06-05T11:48:08;25.40;86.40
30648;DHT22;17683;53.360;9.736;2023-06-05T11:50:34;25.30;86.90
30648;DHT22;17683;53.360;9.736;2023-06-05T11:53:10;25.60;88.60
30648;DHT22;17683;53.360;9.736;2023-06-05T11:55:37;25.70;85.80
30648;DHT22;17683;53.360;9.736;2023-06-05T12:00:48;25.80;85.90
30648;DHT22;17683;53.360;9.736;2023-06-05T12:03:18;25.90;85.00
30648;DHT22;17683;53.360;9.736;2023-06-05T12:05:44;26.10;86.00
30648;DHT22;17683;53.360;9.736;2023-06-05T12:08:28;26.20;86.90
30648;DHT22;17683;53.360;9.736;2023-06-05T12:10:55;26.20;84.30
30648;DHT22;17683;53.360;9.736;2023-06-05T12:13:46;26.30;83.90
30648;DHT22;17683;53.360;9.736;2023-06-05T12:16:17;26.30;83.20
30648;DHT22;17683;53.360;9.736;2023-06-05T12:18:44;26.00;81.80
30648;DHT22;17683;53.360;9.736;2023-06-05T12:21:24;25.60;83.20
30648;DHT22;17683;53.360;9.736;2023-06-05T12:23:50;25.80;83.50
30648;DHT22;17683;53.360;9.736;2023-06-05T12:26:17;25.80;83.40
30648;DHT22;17683;53.360;9.736;2023-06-05T12:28:45;25.60;82.70
30648;DHT22;17683;53.360;9.736;2023-06-05T12:31:35;25.50;83.10
30648;DHT22;17683;53.360;9.736;2023-06-05T12:34:02;25.20;82.10
30648;DHT22;17683;53.360;9.736;2023-06-05T12:36:30;25.40;82.90
30648;DHT22;17683;53.360;9.736;2023-06-05T12:39:01;25.30;83.10
30648;DHT22;17683;53.360;9.736;2023-06-05T12:41:29;25.00;81.60
30648;DHT22;17683;53.360;9.736;2023-06-05T12:44:02;24.90;80.90
30648;DHT22;17683;53.360;9.736;2023-06-05T12:46:30;24.90;82.40
30648;DHT22;17683;53.360;9.736;2023-06-05T12:48:56;25.10;84.00
30648;DHT22;17683;53.360;9.736;2023-06-05T12:51:24;25.20;84.10
30648;DHT22;17683;53.360;9.736;2023-06-05T12:53:54;25.30;81.40
30648;DHT22;17683;53.360;9.736;2023-06-05T12:56:24;25.40;83.30
30648;DHT22;17683;53.360;9.736;2023-06-05T12:58:53;25.40;82.60
30648;DHT22;17683;53.360;9.736;2023-06-05T13:01:19;25.40;83.50
30648;DHT22;17683;53.360;9.736;2023-06-05T13:03:45;25.70;83.60
30648;DHT22;17683;53.360;9.736;2023-06-05T13:06:10;25.90;84.00
30648;DHT22;17683;53.360;9.736;2023-06-05T13:08:36;25.90;81.70
30648;DHT22;17683;53.360;9.736;2023-06-05T13:11:02;25.80;80.70
30648;DHT22;17683;53.360;9.736;2023-06-05T13:13:28;25.80;81.80
30648;DHT22;17683;53.360;9.736;2023-06-05T13:15:55;25.70;81.60
30648;DHT22;17683;53.360;9.736;2023-06-05T13:18:21;25.80;82.00
30648;DHT22;17683;53.360;9.736;2023-06-05T13:20:46;25.60;82.40
30648;DHT22;17683;53.360;9.736;2023-06-05T13:23:12;25.30;81.10
30648;DHT22;17683;53.360;9.736;2023-06-05T13:25:37;25.40;83.40
30648;DHT22;17683;53.360;9.736;2023-06-05T13:28:05;25.30;81.40
30648;DHT22;17683;53.360;9.736;2023-06-05T13:30:32;24.90;80.90
30648;DHT22;17683;53.360;9.736;2023-06-05T13:32:58;24.90;82.30
30648;DHT22;17683;53.360;9.736;2023-06-05T13:35:24;24.90;83.50
30648;DHT22;17683;53.360;9.736;2023-06-05T13:37:50;25.00;83.50
30648;DHT22;17683;53.360;9.736;2023-06-05T13:40:16;24.90;82.30
30648;DHT22;17683;53.360;9.736;2023-06-05T13:42:42;24.80;82.00
30648;DHT22;17683;53.360;9.736;2023-06-05T13:45:08;24.60;82.30
30648;DHT22;17683;53.360;9.736;2023-06-05T13:47:35;24.80;83.00
30648;DHT22;17683;53.360;9.736;2023-06-05T13:50:02;25.00;83.90
30648;DHT22;17683;53.360;9.736;2023-06-05T13:52:28;25.30;82.50
30648;DHT22;17683;53.360;9.736;2023-06-05T13:54:54;25.40;82.30
30648;DHT22;17683;53.360;9.736;2023-06-05T13:57:20;25.60;82.30
30648;DHT22;17683;53.360;9.736;2023-06-05T13:59:46;25.60;80.00
30648;DHT22;17683;53.360;9.736;2023-06-05T14:02:12;25.60;80.20
30648;DHT22;17683;53.360;9.736;2023-06-05T14:04:38;25.60;79.60
30648;DHT22;17683;53.360;9.736;2023-06-05T14:07:04;25.40;79.60
30648;DHT22;17683;53.360;9.736;2023-06-05T14:09:30;25.20;79.90
30648;DHT22;17683;53.360;9.736;2023-06-05T14:11:56;25.20;81.90
30648;DHT22;17683;53.360;9.736;2023-06-05T14:14:25;25.30;79.90
30648;DHT22;17683;53.360;9.736;2023-06-05T14:16:51;25.10;81.10
30648;DHT22;17683;53.360;9.736;2023-06-05T14:19:17;25.20;79.50
30648;DHT22;17683;53.360;9.736;2023-06-05T14:21:44;25.40;81.40
30648;DHT22;17683;53.360;9.736;2023-06-05T14:24:10;25.40;82.80
30648;DHT22;17683;53.360;9.736;2023-06-05T14:26:36;25.30;80.40
30648;DHT22;17683;53.360;9.736;2023-06-05T14:29:02;25.50;80.90
30648;DHT22;17683;53.360;9.736;2023-06-05T14:31:28;25.40;80.00
30648;DHT22;17683;53.360;9.736;2023-06-05T14:33:54;25.60;83.20
30648;DHT22;17683;53.360;9.736;2023-06-05T14:36:20;25.80;79.20
30648;DHT22;17683;53.360;9.736;2023-06-05T14:38:46;25.80;80.90
30648;DHT22;17683;53.360;9.736;2023-06-05T14:41:11;25.80;80.00
30648;DHT22;17683;53.360;9.736;2023-06-05T14:43:37;25.80;78.60
30648;DHT22;17683;53.360;9.736;2023-06-05T14:46:03;25.80;78.90
30648;DHT22;17683;53.360;9.736;2023-06-05T14:48:30;25.80;78.20
30648;DHT22;17683;53.360;9.736;2023-06-05T14:50:55;25.70;77.70
30648;DHT22;17683;53.360;9.736;2023-06-05T14:53:21;25.70;79.40
30648;DHT22;17683;53.360;9.736;2023-06-05T14:55:47;25.70;78.90
30648;DHT22;17683;53.360;9.736;2023-06-05T14:58:13;25.60;79.00
30648;DHT22;17683;53.360;9.736;2023-06-05T15:00:39;25.60;79.40
30648;DHT22;17683;53.360;9.736;2023-06-05T15:03:04;25.60;80.80
30648;DHT22;17683;53.360;9.736;2023-06-05T15:05:31;25.60;79.30
30648;DHT22;17683;53.360;9.736;2023-06-05T15:07:58;25.70;79.30
30648;DHT22;17683;53.360;9.736;2023-06-05T15:10:24;25.70;79.70
30648;DHT22;17683;53.360;9.736;2023-06-05T15:12:52;25.60;78.10
30648;DHT22;17683;53.360;9.736;2023-06-05T15:15:23;25.60;79.00
30648;DHT22;17683;53.360;9.736;2023-06-05T15:17:49;25.60;79.20
30648;DHT22;17683;53.360;9.736;2023-06-05T15:20:18;25.60;79.30
30648;DHT22;17683;53.360;9.736;2023-06-05T15:22:44;25.50;79.10
30648;DHT22;17683;53.360;9.736;2023-06-05T15:25:10;25.50;78.00
30648;DHT22;17683;53.360;9.736;2023-06-05T15:27:36;25.60;79.20
30648;DHT22;17683;53.360;9.736;2023-06-05T15:30:04;25.60;79.80
30648;DHT22;17683;53.360;9.736;2023-06-05T15:32:30;25.60;78.40
30648;DHT22;17683;53.360;9.736;2023-06-05T15:34:55;25.60;78.70
30648;DHT22;17683;53.360;9.736;2023-06-05T15:37:23;25.60;78.90
30648;DHT22;17683;53.360;9.736;2023-06-05T15:39:49;25.50;79.50
30648;DHT22;17683;53.360;9.736;2023-06-05T15:42:18;25.60;80.20
30648;DHT22;17683;53.360;9.736;2023-06-05T15:44:52;25.60;79.00
30648;DHT22;17683;53.360;9.736;2023-06-05T15:47:18;25.50;78.80
30648;DHT22;17683;53.360;9.736;2023-06-05T15:49:44;25.50;78.80
30648;DHT22;17683;53.360;9.736;2023-06-05T15:52:12;25.40;78.80
30648;DHT22;17683;53.360;9.736;2023-06-05T15:54:38;25.30;77.10
30648;DHT22;17683;53.360;9.736;2023-06-05T15:57:06;25.40;79.20
30648;DHT22;17683;53.360;9.736;2023-06-05T15:59:32;25.40;79.10
30648;DHT22;17683;53.360;9.736;2023-06-05T16:01:58;25.40;80.20
30648;DHT22;17683;53.360;9.736;2023-06-05T16:04:24;25.30;80.30
30648;DHT22;17683;53.360;9.736;2023-06-05T16:06:50;25.30;80.60
30648;DHT22;17683;53.360;9.736;2023-06-05T16:09:16;25.20;81.90
30648;DHT22;17683;53.360;9.736;2023-06-05T16:11:42;25.20;81.70
30648;DHT22;17683;53.360;9.736;2023-06-05T16:14:08;25.10;82.50
30648;DHT22;17683;53.360;9.736;2023-06-05T16:16:35;25.10;82.00
30648;DHT22;17683;53.360;9.736;2023-06-05T16:19:00;25.10;81.20
30648;DHT22;17683;53.360;9.736;2023-06-05T16:21:28;25.00;81.80
30648;DHT22;17683;53.360;9.736;2023-06-05T16:23:54;25.00;82.80